sensor_id;sensor_type;location;lat;lon;timestamp;temperature;humidity
612;DHT22;293;53.888;11.464;2023-07-13T00:00:37;18.50;99.90
612;DHT22;293;53.888;11.464;2023-07-13T00:03:04;18.50;99.90
612;DHT22;293;53.888;11.464;2023-07-13T00:05:31;18.50;99.90
612;DHT22;293;53.888;11.464;2023-07-13T00:07:58;18.50;99.90
612;DHT22;293;53.888;11.464;2023-07-13T00:10:25;18.50;99.90
612;DHT22;293;53.888;11.464;2023-07-13T00:12:52;18.60;99.90
612;DHT22;293;53.888;11.464;2023-07-13T00:15:22;18.80;99.90
612;DHT22;293;53.888;11.464;2023-07-13T00:17:51;18.80;99.90
612;DHT22;293;53.888;11.464;2023-07-13T00:20:19;18.90;99.90
612;DHT22;293;53.888;11.464;2023-07-13T00:22:47;18.90;99.90
612;DHT22;293;53.888;11.464;2023-07-13T00:25:15;18.90;99.90
612;DHT22;293;53.888;11.464;2023-07-13T00:27:42;18.90;99.90
612;DHT22;293;53.888;11.464;2023-07-13T00:30:15;18.90;99.90
612;DHT22;293;53.888;11.464;2023-07-13T00:32:42;18.90;99.90
612;DHT22;293;53.888;11.464;2023-07-13T00:35:13;18.80;99.90
612;DHT22;293;53.888;11.464;2023-07-13T00:37:41;18.80;99.90
612;DHT22;293;53.888;11.464;2023-07-13T00:40:10;18.80;99.90
612;DHT22;293;53.888;11.464;2023-07-13T00:42:37;18.70;99.90
612;DHT22;293;53.888;11.464;2023-07-13T00:45:07;18.80;99.90
612;DHT22;293;53.888;11.464;2023-07-13T00:47:54;18.80;99.90
612;DHT22;293;53.888;11.464;2023-07-13T00:50:23;18.80;99.90
612;DHT22;293;53.888;11.464;2023-07-13T00:52:53;18.80;99.90
612;DHT22;293;53.888;11.464;2023-07-13T00:55:23;18.80;99.90
612;DHT22;293;53.888;11.464;2023-07-13T00:57:50;18.80;99.90
612;DHT22;293;53.888;11.464;2023-07-13T01:00:18;18.80;99.90
612;DHT22;293;53.888;11.464;2023-07-13T01:02:48;18.70;99.90
612;DHT22;293;53.888;11.464;2023-07-13T01:05:18;18.70;99.90
612;DHT22;293;53.888;11.464;2023-07-13T01:07:48;18.70;99.90
612;DHT22;293;53.888;11.464;2023-07-13T01:10:19;18.60;99.90
612;DHT22;293;53.888;11.464;2023-07-13T01:12:47;18.60;99.90
612;DHT22;293;53.888;11.464;2023-07-13T01:15:35;18.50;99.90
612;DHT22;293;53.888;11.464;2023-07-13T01:18:03;18.60;99.90
612;DHT22;293;53.888;11.464;2023-07-13T01:20:31;18.60;99.90
612;DHT22;293;53.888;11.464;2023-07-13T01:23:03;18.60;99.90
612;DHT22;293;53.888;11.464;2023-07-13T01:25:31;18.60;99.90
612;DHT22;293;53.888;11.464;2023-07-13T01:27:58;18.50;99.90
612;DHT22;293;53.888;11.464;2023-07-13T01:30:25;18.40;99.90
612;DHT22;293;53.888;11.464;2023-07-13T01:32:52;18.40;99.90
612;DHT22;293;53.888;11.464;2023-07-13T01:35:19;18.40;99.90
612;DHT22;293;53.888;11.464;2023-07-13T01:37:46;18.40;99.90
612;DHT22;293;53.888;11.464;2023-07-13T01:40:14;18.40;99.90
612;DHT22;293;53.888;11.464;2023-07-13T01:42:41;18.40;99.90
612;DHT22;293;53.888;11.464;2023-07-13T01:45:08;18.40;99.90
612;DHT22;293;53.888;11.464;2023-07-13T01:47:35;18.30;99.90
612;DHT22;293;53.888;11.464;2023-07-13T01:50:02;18.30;99.90
612;DHT22;293;53.888;11.464;2023-07-13T01:52:29;18.20;99.90
612;DHT22;293;53.888;11.464;2023-07-13T01:54:56;18.20;99.90
612;DHT22;293;53.888;11.464;2023-07-13T01:57:24;18.30;99.90
612;DHT22;293;53.888;11.464;2023-07-13T01:59:51;18.30;99.90
612;DHT22;293;53.888;11.464;2023-07-13T02:02:18;18.30;99.90
612;DHT22;293;53.888;11.464;2023-07-13T02:04:45;18.30;99.90
612;DHT22;293;53.888;11.464;2023-07-13T02:07:12;18.20;99.90
612;DHT22;293;53.888;11.464;2023-07-13T02:09:40;18.30;99.90
612;DHT22;293;53.888;11.464;2023-07-13T02:12:08;18.20;99.90
612;DHT22;293;53.888;11.464;2023-07-13T02:14:36;18.20;99.90
612;DHT22;293;53.888;11.464;2023-07-13T02:17:04;18.20;99.90
612;DHT22;293;53.888;11.464;2023-07-13T02:19:31;18.30;99.90
612;DHT22;293;53.888;11.464;2023-07-13T02:21:58;18.30;99.90
612;DHT22;293;53.888;11.464;2023-07-13T02:24:24;18.20;99.90
612;DHT22;293;53.888;11.464;2023-07-13T02:26:52;18.20;99.90
612;DHT22;293;53.888;11.464;2023-07-13T02:29:19;18.20;99.90
612;DHT22;293;53.888;11.464;2023-07-13T02:31:47;18.30;99.90
612;DHT22;293;53.888;11.464;2023-07-13T02:34:14;18.30;99.90
612;DHT22;293;53.888;11.464;2023-07-13T02:36:41;18.20;99.90
612;DHT22;293;53.888;11.464;2023-07-13T02:39:09;18.20;99.90
612;DHT22;293;53.888;11.464;2023-07-13T02:41:38;18.20;99.90
612;DHT22;293;53.888;11.464;2023-07-13T02:44:04;18.10;99.90
612;DHT22;293;53.888;11.464;2023-07-13T02:46:34;18.10;99.90
612;DHT22;293;53.888;11.464;2023-07-13T02:49:03;18.10;99.90
612;DHT22;293;53.888;11.464;2023-07-13T02:51:31;18.00;99.90
612;DHT22;293;53.888;11.464;2023-07-13T02:53:59;18.00;99.90
612;DHT22;293;53.888;11.464;2023-07-13T02:56:27;17.90;99.90
612;DHT22;293;53.888;11.464;2023-07-13T02:58:54;17.90;99.90
612;DHT22;293;53.888;11.464;2023-07-13T03:01:21;17.80;99.90
612;DHT22;293;53.888;11.464;2023-07-13T03:03:49;17.80;99.90
612;DHT22;293;53.888;11.464;2023-07-13T03:06:18;17.70;99.90
612;DHT22;293;53.888;11.464;2023-07-13T03:08:47;17.60;99.90
612;DHT22;293;53.888;11.464;2023-07-13T03:11:16;17.60;99.90
612;DHT22;293;53.888;11.464;2023-07-13T03:13:43;17.60;99.90
612;DHT22;293;53.888;11.464;2023-07-13T03:16:11;17.60;99.90
612;DHT22;293;53.888;11.464;2023-07-13T03:18:38;17.50;99.90
612;DHT22;293;53.888;11.464;2023-07-13T03:21:06;17.50;99.90
612;DHT22;293;53.888;11.464;2023-07-13T03:23:34;17.40;99.90
612;DHT22;293;53.888;11.464;2023-07-13T03:26:02;17.40;99.90
612;DHT22;293;53.888;11.464;2023-07-13T03:28:29;17.50;99.90
612;DHT22;293;53.888;11.464;2023-07-13T03:31:01;17.50;99.90
612;DHT22;293;53.888;11.464;2023-07-13T03:33:28;17.50;99.90
612;DHT22;293;53.888;11.464;2023-07-13T03:35:55;17.40;99.90
612;DHT22;293;53.888;11.464;2023-07-13T03:38:22;17.50;99.90
612;DHT22;293;53.888;11.464;2023-07-13T03:40:50;17.50;99.90
612;DHT22;293;53.888;11.464;2023-07-13T03:43:17;17.50;99.90
612;DHT22;293;53.888;11.464;2023-07-13T03:45:46;17.60;99.90
612;DHT22;293;53.888;11.464;2023-07-13T03:48:13;17.80;99.90
612;DHT22;293;53.888;11.464;2023-07-13T03:50:40;18.00;99.90
612;DHT22;293;53.888;11.464;2023-07-13T03:53:07;18.20;99.90
612;DHT22;293;53.888;11.464;2023-07-13T03:55:34;19.00;99.90
612;DHT22;293;53.888;11.464;2023-07-13T03:58:23;19.90;99.90
612;DHT22;293;53.888;11.464;2023-07-13T04:00:51;21.10;99.90
612;DHT22;293;53.888;11.464;2023-07-13T04:03:18;21.50;99.90
612;DHT22;293;53.888;11.464;2023-07-13T04:05:45;21.40;99.90
612;DHT22;293;53.888;11.464;2023-07-13T04:08:13;22.00;99.90
612;DHT22;293;53.888;11.464;2023-07-13T04:10:40;23.00;99.90
612;DHT22;293;53.888;11.464;2023-07-13T04:13:08;24.00;99.50
612;DHT22;293;53.888;11.464;2023-07-13T04:15:35;24.90;97.80
612;DHT22;293;53.888;11.464;2023-07-13T04:18:02;25.70;95.90
612;DHT22;293;53.888;11.464;2023-07-13T04:20:29;26.60;93.60
612;DHT22;293;53.888;11.464;2023-07-13T04:22:56;27.50;92.70
612;DHT22;293;53.888;11.464;2023-07-13T04:25:24;28.20;90.30
612;DHT22;293;53.888;11.464;2023-07-13T04:27:51;28.90;88.80
612;DHT22;293;53.888;11.464;2023-07-13T04:30:20;29.60;84.90
612;DHT22;293;53.888;11.464;2023-07-13T04:32:47;30.20;81.90
612;DHT22;293;53.888;11.464;2023-07-13T04:35:14;30.70;79.70
612;DHT22;293;53.888;11.464;2023-07-13T04:37:41;31.20;77.70
612;DHT22;293;53.888;11.464;2023-07-13T04:40:08;31.60;75.70
612;DHT22;293;53.888;11.464;2023-07-13T04:42:37;32.20;74.30
612;DHT22;293;53.888;11.464;2023-07-13T04:45:05;32.70;72.20
612;DHT22;293;53.888;11.464;2023-07-13T04:47:34;32.80;70.50
612;DHT22;293;53.888;11.464;2023-07-13T04:50:01;33.10;69.10
612;DHT22;293;53.888;11.464;2023-07-13T04:52:28;33.60;68.70
612;DHT22;293;53.888;11.464;2023-07-13T04:54:55;34.10;67.30
612;DHT22;293;53.888;11.464;2023-07-13T04:57:22;34.60;64.80
612;DHT22;293;53.888;11.464;2023-07-13T04:59:49;35.00;64.40
612;DHT22;293;53.888;11.464;2023-07-13T05:02:16;35.40;63.10
612;DHT22;293;53.888;11.464;2023-07-13T05:04:46;35.60;62.30
612;DHT22;293;53.888;11.464;2023-07-13T05:07:13;35.90;61.00
612;DHT22;293;53.888;11.464;2023-07-13T05:09:40;35.90;60.40
612;DHT22;293;53.888;11.464;2023-07-13T05:12:07;35.90;59.30
612;DHT22;293;53.888;11.464;2023-07-13T05:14:34;36.00;59.50
612;DHT22;293;53.888;11.464;2023-07-13T05:17:01;36.30;58.60
612;DHT22;293;53.888;11.464;2023-07-13T05:19:28;36.70;57.80
612;DHT22;293;53.888;11.464;2023-07-13T05:21:56;37.20;56.30
612;DHT22;293;53.888;11.464;2023-07-13T05:24:23;37.70;55.70
612;DHT22;293;53.888;11.464;2023-07-13T05:26:50;38.30;54.50
612;DHT22;293;53.888;11.464;2023-07-13T05:29:17;38.90;54.00
612;DHT22;293;53.888;11.464;2023-07-13T05:31:44;39.80;52.80
612;DHT22;293;53.888;11.464;2023-07-13T05:34:11;40.60;49.60
612;DHT22;293;53.888;11.464;2023-07-13T05:36:38;41.20;48.90
612;DHT22;293;53.888;11.464;2023-07-13T05:39:06;41.80;46.90
612;DHT22;293;53.888;11.464;2023-07-13T05:41:33;42.20;46.80
612;DHT22;293;53.888;11.464;2023-07-13T05:44:00;42.50;44.90
612;DHT22;293;53.888;11.464;2023-07-13T05:46:27;42.70;44.60
612;DHT22;293;53.888;11.464;2023-07-13T05:48:54;43.00;44.10
612;DHT22;293;53.888;11.464;2023-07-13T05:51:20;43.30;43.50
612;DHT22;293;53.888;11.464;2023-07-13T05:53:47;43.30;41.50
612;DHT22;293;53.888;11.464;2023-07-13T05:56:16;42.70;41.70
612;DHT22;293;53.888;11.464;2023-07-13T05:58:43;42.50;41.00
612;DHT22;293;53.888;11.464;2023-07-13T06:01:11;42.10;40.60
612;DHT22;293;53.888;11.464;2023-07-13T06:03:38;41.90;42.30
612;DHT22;293;53.888;11.464;2023-07-13T06:06:06;41.50;41.20
612;DHT22;293;53.888;11.464;2023-07-13T06:08:33;41.30;41.90
612;DHT22;293;53.888;11.464;2023-07-13T06:11:05;41.30;42.60
612;DHT22;293;53.888;11.464;2023-07-13T06:13:34;41.30;42.10
612;DHT22;293;53.888;11.464;2023-07-13T06:16:01;41.20;41.60
612;DHT22;293;53.888;11.464;2023-07-13T06:18:30;41.00;41.20
612;DHT22;293;53.888;11.464;2023-07-13T06:20:57;41.10;42.20
612;DHT22;293;53.888;11.464;2023-07-13T06:23:24;41.20;40.90
612;DHT22;293;53.888;11.464;2023-07-13T06:25:52;41.10;41.30
612;DHT22;293;53.888;11.464;2023-07-13T06:28:19;41.10;41.00
612;DHT22;293;53.888;11.464;2023-07-13T06:30:47;40.90;41.30
612;DHT22;293;53.888;11.464;2023-07-13T06:33:14;40.50;41.60
612;DHT22;293;53.888;11.464;2023-07-13T06:35:42;40.90;41.10
612;DHT22;293;53.888;11.464;2023-07-13T06:38:08;40.70;40.50
612;DHT22;293;53.888;11.464;2023-07-13T06:40:35;40.70;40.90
612;DHT22;293;53.888;11.464;2023-07-13T06:43:02;40.80;41.00
612;DHT22;293;53.888;11.464;2023-07-13T06:45:29;40.80;41.40
612;DHT22;293;53.888;11.464;2023-07-13T06:47:57;41.00;41.30
612;DHT22;293;53.888;11.464;2023-07-13T06:50:24;40.70;41.50
612;DHT22;293;53.888;11.464;2023-07-13T06:52:51;40.60;41.20
612;DHT22;293;53.888;11.464;2023-07-13T06:55:18;39.70;40.60
612;DHT22;293;53.888;11.464;2023-07-13T06:57:45;38.20;42.80
612;DHT22;293;53.888;11.464;2023-07-13T07:00:13;37.20;44.10
612;DHT22;293;53.888;11.464;2023-07-13T07:02:40;35.80;46.10
612;DHT22;293;53.888;11.464;2023-07-13T07:05:08;33.40;49.10
612;DHT22;293;53.888;11.464;2023-07-13T07:07:35;33.00;50.40
612;DHT22;293;53.888;11.464;2023-07-13T07:10:03;31.80;52.90
612;DHT22;293;53.888;11.464;2023-07-13T07:12:30;29.90;56.70
612;DHT22;293;53.888;11.464;2023-07-13T07:14:57;29.60;57.30
612;DHT22;293;53.888;11.464;2023-07-13T07:17:24;28.50;59.00
612;DHT22;293;53.888;11.464;2023-07-13T07:19:51;27.90;60.80
612;DHT22;293;53.888;11.464;2023-07-13T07:22:21;27.20;62.80
612;DHT22;293;53.888;11.464;2023-07-13T07:24:48;26.60;63.90
612;DHT22;293;53.888;11.464;2023-07-13T07:27:14;26.20;65.30
612;DHT22;293;53.888;11.464;2023-07-13T07:29:41;25.90;65.90
612;DHT22;293;53.888;11.464;2023-07-13T07:32:08;25.70;67.30
612;DHT22;293;53.888;11.464;2023-07-13T07:34:35;25.70;67.70
612;DHT22;293;53.888;11.464;2023-07-13T07:37:03;25.60;67.70
612;DHT22;293;53.888;11.464;2023-07-13T07:39:31;25.40;68.50
612;DHT22;293;53.888;11.464;2023-07-13T07:41:58;25.20;69.20
612;DHT22;293;53.888;11.464;2023-07-13T07:44:25;25.20;70.20
612;DHT22;293;53.888;11.464;2023-07-13T07:46:52;24.90;70.20
612;DHT22;293;53.888;11.464;2023-07-13T07:49:20;25.00;72.10
612;DHT22;293;53.888;11.464;2023-07-13T07:51:46;25.10;71.80
612;DHT22;293;53.888;11.464;2023-07-13T07:54:13;25.20;71.20
612;DHT22;293;53.888;11.464;2023-07-13T07:56:42;25.00;71.90
612;DHT22;293;53.888;11.464;2023-07-13T07:59:09;25.20;72.20
612;DHT22;293;53.888;11.464;2023-07-13T08:01:36;25.30;71.40
612;DHT22;293;53.888;11.464;2023-07-13T08:04:03;25.30;71.80
612;DHT22;293;53.888;11.464;2023-07-13T08:06:31;25.30;71.30
612;DHT22;293;53.888;11.464;2023-07-13T08:08:59;25.40;72.00
612;DHT22;293;53.888;11.464;2023-07-13T08:11:27;25.50;72.30
612;DHT22;293;53.888;11.464;2023-07-13T08:13:55;25.60;73.00
612;DHT22;293;53.888;11.464;2023-07-13T08:16:22;25.60;72.00
612;DHT22;293;53.888;11.464;2023-07-13T08:18:49;25.40;72.40
612;DHT22;293;53.888;11.464;2023-07-13T08:21:16;25.20;73.20
612;DHT22;293;53.888;11.464;2023-07-13T08:23:45;25.10;73.40
612;DHT22;293;53.888;11.464;2023-07-13T08:26:12;25.10;73.50
612;DHT22;293;53.888;11.464;2023-07-13T08:28:39;25.10;74.10
612;DHT22;293;53.888;11.464;2023-07-13T08:31:08;25.50;73.10
612;DHT22;293;53.888;11.464;2023-07-13T08:33:36;25.60;73.90
612;DHT22;293;53.888;11.464;2023-07-13T08:36:04;25.90;72.50
612;DHT22;293;53.888;11.464;2023-07-13T08:38:31;26.00;72.30
612;DHT22;293;53.888;11.464;2023-07-13T08:40:58;25.80;71.80
612;DHT22;293;53.888;11.464;2023-07-13T08:43:27;25.70;73.20
612;DHT22;293;53.888;11.464;2023-07-13T08:46:08;25.70;72.50
612;DHT22;293;53.888;11.464;2023-07-13T08:48:42;25.80;72.70
612;DHT22;293;53.888;11.464;2023-07-13T08:51:22;26.10;73.10
612;DHT22;293;53.888;11.464;2023-07-13T08:53:55;26.20;72.10
612;DHT22;293;53.888;11.464;2023-07-13T08:56:27;26.20;72.00
612;DHT22;293;53.888;11.464;2023-07-13T08:58:56;26.10;72.40
612;DHT22;293;53.888;11.464;2023-07-13T09:01:30;25.80;72.30
612;DHT22;293;53.888;11.464;2023-07-13T09:04:05;25.30;71.80
612;DHT22;293;53.888;11.464;2023-07-13T09:06:40;25.00;73.80
612;DHT22;293;53.888;11.464;2023-07-13T09:09:18;24.60;74.70
612;DHT22;293;53.888;11.464;2023-07-13T09:11:50;24.40;75.60
612;DHT22;293;53.888;11.464;2023-07-13T09:14:39;24.50;76.20
612;DHT22;293;53.888;11.464;2023-07-13T09:17:13;24.50;76.90
612;DHT22;293;53.888;11.464;2023-07-13T09:19:42;24.50;76.00
612;DHT22;293;53.888;11.464;2023-07-13T09:22:14;24.60;75.30
612;DHT22;293;53.888;11.464;2023-07-13T09:24:52;24.70;75.10
612;DHT22;293;53.888;11.464;2023-07-13T09:27:23;24.70;75.50
612;DHT22;293;53.888;11.464;2023-07-13T09:29:57;24.60;75.20
612;DHT22;293;53.888;11.464;2023-07-13T09:32:26;24.20;74.70
612;DHT22;293;53.888;11.464;2023-07-13T09:34:56;24.10;76.20
612;DHT22;293;53.888;11.464;2023-07-13T09:37:29;24.10;76.50
612;DHT22;293;53.888;11.464;2023-07-13T09:39:58;24.20;75.30
612;DHT22;293;53.888;11.464;2023-07-13T09:42:26;24.30;76.00
612;DHT22;293;53.888;11.464;2023-07-13T09:44:55;24.30;75.60
612;DHT22;293;53.888;11.464;2023-07-13T09:47:24;24.20;75.80
612;DHT22;293;53.888;11.464;2023-07-13T09:49:58;24.20;76.50
612;DHT22;293;53.888;11.464;2023-07-13T09:52:26;24.00;77.10
612;DHT22;293;53.888;11.464;2023-07-13T09:54:54;23.80;78.30
612;DHT22;293;53.888;11.464;2023-07-13T09:57:27;23.70;78.90
612;DHT22;293;53.888;11.464;2023-07-13T09:59:55;23.60;79.30
612;DHT22;293;53.888;11.464;2023-07-13T10:02:26;23.70;79.90
612;DHT22;293;53.888;11.464;2023-07-13T10:04:59;23.70;80.30
612;DHT22;293;53.888;11.464;2023-07-13T10:07:27;23.70;80.40
612;DHT22;293;53.888;11.464;2023-07-13T10:09:55;23.90;80.70
612;DHT22;293;53.888;11.464;2023-07-13T10:12:23;23.90;80.00
612;DHT22;293;53.888;11.464;2023-07-13T10:14:52;23.80;79.30
612;DHT22;293;53.888;11.464;2023-07-13T10:17:27;23.80;79.70
612;DHT22;293;53.888;11.464;2023-07-13T10:19:59;23.80;79.70
612;DHT22;293;53.888;11.464;2023-07-13T10:22:36;23.80;80.60
612;DHT22;293;53.888;11.464;2023-07-13T10:25:14;23.80;80.40
612;DHT22;293;53.888;11.464;2023-07-13T10:27:43;24.00;80.40
612;DHT22;293;53.888;11.464;2023-07-13T10:30:15;24.00;79.60
612;DHT22;293;53.888;11.464;2023-07-13T10:32:43;24.10;78.60
612;DHT22;293;53.888;11.464;2023-07-13T10:35:14;24.30;78.40
612;DHT22;293;53.888;11.464;2023-07-13T10:37:47;24.40;78.30
612;DHT22;293;53.888;11.464;2023-07-13T10:40:19;24.50;78.90
612;DHT22;293;53.888;11.464;2023-07-13T10:42:51;24.70;77.90
612;DHT22;293;53.888;11.464;2023-07-13T10:45:20;24.80;76.10
612;DHT22;293;53.888;11.464;2023-07-13T10:47:49;24.80;74.00
612;DHT22;293;53.888;11.464;2023-07-13T10:50:22;24.60;74.90
612;DHT22;293;53.888;11.464;2023-07-13T10:52:52;24.50;77.00
612;DHT22;293;53.888;11.464;2023-07-13T10:55:34;24.30;79.50
612;DHT22;293;53.888;11.464;2023-07-13T10:58:03;24.30;74.70
612;DHT22;293;53.888;11.464;2023-07-13T11:00:43;24.40;75.60
612;DHT22;293;53.888;11.464;2023-07-13T11:03:15;24.40;76.10
612;DHT22;293;53.888;11.464;2023-07-13T11:05:48;24.30;76.40
612;DHT22;293;53.888;11.464;2023-07-13T11:08:20;24.20;76.80
612;DHT22;293;53.888;11.464;2023-07-13T11:16:36;24.60;78.00
612;DHT22;293;53.888;11.464;2023-07-13T11:19:26;24.60;82.40
612;DHT22;293;53.888;11.464;2023-07-13T11:22:12;24.40;80.00
612;DHT22;293;53.888;11.464;2023-07-13T11:25:00;24.30;79.70
612;DHT22;293;53.888;11.464;2023-07-13T11:27:40;24.20;79.60
612;DHT22;293;53.888;11.464;2023-07-13T11:30:23;24.10;80.10
612;DHT22;293;53.888;11.464;2023-07-13T11:33:02;24.10;80.20
612;DHT22;293;53.888;11.464;2023-07-13T11:35:33;24.10;79.20
612;DHT22;293;53.888;11.464;2023-07-13T11:38:03;24.20;79.50
612;DHT22;293;53.888;11.464;2023-07-13T11:40:35;24.00;78.20
612;DHT22;293;53.888;11.464;2023-07-13T11:43:06;23.80;77.50
612;DHT22;293;53.888;11.464;2023-07-13T11:45:33;23.80;76.20
612;DHT22;293;53.888;11.464;2023-07-13T11:48:01;23.80;77.90
612;DHT22;293;53.888;11.464;2023-07-13T11:50:28;23.80;76.70
612;DHT22;293;53.888;11.464;2023-07-13T11:52:57;23.80;76.90
612;DHT22;293;53.888;11.464;2023-07-13T11:55:25;23.90;77.50
612;DHT22;293;53.888;11.464;2023-07-13T11:57:58;23.90;78.30
612;DHT22;293;53.888;11.464;2023-07-13T12:00:28;24.00;78.40
612;DHT22;293;53.888;11.464;2023-07-13T12:02:59;24.10;78.60
612;DHT22;293;53.888;11.464;2023-07-13T12:05:28;24.10;77.40
612;DHT22;293;53.888;11.464;2023-07-13T12:07:57;24.30;77.80
612;DHT22;293;53.888;11.464;2023-07-13T12:10:27;24.40;75.30
612;DHT22;293;53.888;11.464;2023-07-13T12:12:57;24.50;73.10
612;DHT22;293;53.888;11.464;2023-07-13T12:15:38;24.40;69.30
612;DHT22;293;53.888;11.464;2023-07-13T12:18:12;24.50;69.40
612;DHT22;293;53.888;11.464;2023-07-13T12:20:40;24.60;70.00
612;DHT22;293;53.888;11.464;2023-07-13T12:23:21;24.80;69.90
612;DHT22;293;53.888;11.464;2023-07-13T12:25:51;25.00;70.40
612;DHT22;293;53.888;11.464;2023-07-13T12:28:22;25.10;68.80
612;DHT22;293;53.888;11.464;2023-07-13T12:30:49;25.00;69.20
612;DHT22;293;53.888;11.464;2023-07-13T12:33:16;24.80;69.80
612;DHT22;293;53.888;11.464;2023-07-13T12:35:46;24.70;69.20
612;DHT22;293;53.888;11.464;2023-07-13T12:38:15;24.50;67.80
612;DHT22;293;53.888;11.464;2023-07-13T12:40:42;24.30;69.50
612;DHT22;293;53.888;11.464;2023-07-13T12:43:13;24.30;71.70
612;DHT22;293;53.888;11.464;2023-07-13T12:45:55;24.30;71.90
612;DHT22;293;53.888;11.464;2023-07-13T12:48:22;24.20;70.60
612;DHT22;293;53.888;11.464;2023-07-13T12:50:50;24.10;70.70
612;DHT22;293;53.888;11.464;2023-07-13T12:53:20;24.00;72.30
612;DHT22;293;53.888;11.464;2023-07-13T12:55:50;24.00;71.20
612;DHT22;293;53.888;11.464;2023-07-13T12:58:22;24.10;71.10
612;DHT22;293;53.888;11.464;2023-07-13T13:00:54;24.20;71.30
612;DHT22;293;53.888;11.464;2023-07-13T13:03:26;24.10;71.50
612;DHT22;293;53.888;11.464;2023-07-13T13:05:58;24.20;72.50
612;DHT22;293;53.888;11.464;2023-07-13T13:08:28;24.20;73.20
612;DHT22;293;53.888;11.464;2023-07-13T13:10:56;24.30;73.20
612;DHT22;293;53.888;11.464;2023-07-13T13:13:24;24.30;73.90
612;DHT22;293;53.888;11.464;2023-07-13T13:15:51;24.50;73.90
612;DHT22;293;53.888;11.464;2023-07-13T13:18:20;24.50;73.00
612;DHT22;293;53.888;11.464;2023-07-13T13:20:47;24.60;73.10
612;DHT22;293;53.888;11.464;2023-07-13T13:23:16;24.50;73.00
612;DHT22;293;53.888;11.464;2023-07-13T13:25:44;24.40;72.70
612;DHT22;293;53.888;11.464;2023-07-13T13:28:14;24.10;72.60
612;DHT22;293;53.888;11.464;2023-07-13T13:30:45;24.20;72.90
612;DHT22;293;53.888;11.464;2023-07-13T13:33:21;24.20;72.90
612;DHT22;293;53.888;11.464;2023-07-13T13:35:49;24.30;70.30
612;DHT22;293;53.888;11.464;2023-07-13T13:38:18;24.30;71.60
612;DHT22;293;53.888;11.464;2023-07-13T13:40:46;24.30;71.70
612;DHT22;293;53.888;11.464;2023-07-13T13:43:15;24.30;72.10
612;DHT22;293;53.888;11.464;2023-07-13T13:45:45;24.20;71.70
612;DHT22;293;53.888;11.464;2023-07-13T13:48:20;23.90;72.70
612;DHT22;293;53.888;11.464;2023-07-13T13:50:48;23.70;73.20
612;DHT22;293;53.888;11.464;2023-07-13T13:53:15;23.50;73.10
612;DHT22;293;53.888;11.464;2023-07-13T13:55:41;23.40;74.00
612;DHT22;293;53.888;11.464;2023-07-13T13:58:16;23.30;74.10
612;DHT22;293;53.888;11.464;2023-07-13T14:00:44;23.00;80.80
612;DHT22;293;53.888;11.464;2023-07-13T14:03:14;22.80;88.10
612;DHT22;293;53.888;11.464;2023-07-13T14:05:42;22.40;90.00
612;DHT22;293;53.888;11.464;2023-07-13T14:08:13;22.10;92.00
612;DHT22;293;53.888;11.464;2023-07-13T14:10:40;21.80;94.10
612;DHT22;293;53.888;11.464;2023-07-13T14:13:16;21.70;95.80
612;DHT22;293;53.888;11.464;2023-07-13T14:15:46;21.30;96.50
612;DHT22;293;53.888;11.464;2023-07-13T14:18:13;21.20;98.10
612;DHT22;293;53.888;11.464;2023-07-13T14:20:43;21.20;98.10
612;DHT22;293;53.888;11.464;2023-07-13T14:23:12;21.00;98.50
612;DHT22;293;53.888;11.464;2023-07-13T14:25:39;20.90;98.10
612;DHT22;293;53.888;11.464;2023-07-13T14:28:19;20.60;98.70
612;DHT22;293;53.888;11.464;2023-07-13T14:30:47;20.40;99.50
612;DHT22;293;53.888;11.464;2023-07-13T14:33:14;20.10;99.70
612;DHT22;293;53.888;11.464;2023-07-13T14:35:41;19.90;99.90
612;DHT22;293;53.888;11.464;2023-07-13T14:38:10;19.60;99.90
612;DHT22;293;53.888;11.464;2023-07-13T14:40:38;19.40;99.90
612;DHT22;293;53.888;11.464;2023-07-13T14:43:07;19.20;99.90
612;DHT22;293;53.888;11.464;2023-07-13T14:45:41;19.10;99.90
612;DHT22;293;53.888;11.464;2023-07-13T14:48:17;19.00;99.90
612;DHT22;293;53.888;11.464;2023-07-13T14:50:45;18.90;99.90
612;DHT22;293;53.888;11.464;2023-07-13T14:53:13;18.90;99.90
612;DHT22;293;53.888;11.464;2023-07-13T14:55:40;18.90;99.90
612;DHT22;293;53.888;11.464;2023-07-13T14:58:08;19.00;99.90
612;DHT22;293;53.888;11.464;2023-07-13T15:00:35;19.10;99.90
612;DHT22;293;53.888;11.464;2023-07-13T15:03:03;19.20;99.90
612;DHT22;293;53.888;11.464;2023-07-13T15:05:33;19.30;99.90
612;DHT22;293;53.888;11.464;2023-07-13T15:08:01;19.30;99.90
612;DHT22;293;53.888;11.464;2023-07-13T15:10:30;19.50;99.90
612;DHT22;293;53.888;11.464;2023-07-13T15:12:59;19.70;99.90
612;DHT22;293;53.888;11.464;2023-07-13T15:15:28;19.80;99.90
612;DHT22;293;53.888;11.464;2023-07-13T15:17:56;19.90;99.90
612;DHT22;293;53.888;11.464;2023-07-13T15:20:26;20.00;99.90
612;DHT22;293;53.888;11.464;2023-07-13T15:22:56;20.10;99.90
612;DHT22;293;53.888;11.464;2023-07-13T15:25:24;20.20;99.90
612;DHT22;293;53.888;11.464;2023-07-13T15:27:52;20.30;99.90
612;DHT22;293;53.888;11.464;2023-07-13T15:30:19;20.40;99.90
612;DHT22;293;53.888;11.464;2023-07-13T15:32:47;20.40;99.90
612;DHT22;293;53.888;11.464;2023-07-13T15:35:15;20.50;99.90
612;DHT22;293;53.888;11.464;2023-07-13T15:37:43;22.90;99.90
612;DHT22;293;53.888;11.464;2023-07-13T15:40:13;20.70;99.90
612;DHT22;293;53.888;11.464;2023-07-13T15:42:41;20.80;99.90
612;DHT22;293;53.888;11.464;2023-07-13T15:45:19;20.70;99.90
612;DHT22;293;53.888;11.464;2023-07-13T15:47:47;20.60;99.90
612;DHT22;293;53.888;11.464;2023-07-13T15:50:15;20.50;99.90
612;DHT22;293;53.888;11.464;2023-07-13T15:52:44;20.40;99.90
612;DHT22;293;53.888;11.464;2023-07-13T15:55:14;20.40;99.90
612;DHT22;293;53.888;11.464;2023-07-13T15:57:44;20.30;99.90
612;DHT22;293;53.888;11.464;2023-07-13T16:00:20;20.30;99.90
612;DHT22;293;53.888;11.464;2023-07-13T16:02:49;20.30;99.90
612;DHT22;293;53.888;11.464;2023-07-13T16:05:16;20.20;99.90
612;DHT22;293;53.888;11.464;2023-07-13T16:07:43;20.20;99.90
612;DHT22;293;53.888;11.464;2023-07-13T16:10:17;20.10;99.90
612;DHT22;293;53.888;11.464;2023-07-13T16:12:46;20.30;99.90
612;DHT22;293;53.888;11.464;2023-07-13T16:15:15;20.30;99.90
612;DHT22;293;53.888;11.464;2023-07-13T16:17:44;20.30;99.90
612;DHT22;293;53.888;11.464;2023-07-13T16:20:12;20.40;99.90
612;DHT22;293;53.888;11.464;2023-07-13T16:22:41;20.80;99.90
612;DHT22;293;53.888;11.464;2023-07-13T16:25:16;20.80;99.90
612;DHT22;293;53.888;11.464;2023-07-13T16:27:44;21.00;99.90
612;DHT22;293;53.888;11.464;2023-07-13T16:30:16;21.20;99.90
612;DHT22;293;53.888;11.464;2023-07-13T16:32:47;21.20;99.90
612;DHT22;293;53.888;11.464;2023-07-13T16:35:17;21.40;99.90